Погода Коронел Фабрицианона неделю

Минас-Жерайс, Бразилия

24 - 30 мая
  • 24мая
    Сегодня
    +16°
    +30°
    Небольшая облачность
    ВремяПогодаТемператураВлажностьДавлениеВетер, м/сВероятность осадков
    00:00Ясно и безоблачно+18°C76 %739 мм0.7 м/с5 %
    03:00Ясно и безоблачно+17°C79 %739 мм0.7 м/с5 %
    06:00Ясно и безоблачно+17°C82 %740 мм0.7 м/с5 %
    09:00Ясно и безоблачно+23°C69 %741 мм2.3 м/с4 %
    12:00Небольшая облачность+28°C47 %740 мм2.7 м/с4 %
    15:00Небольшая облачность+30°C37 %738 мм2.4 м/с5 %
    18:00Ясно и безоблачно+21°C56 %738 мм0.9 м/с5 %
    21:00Практически безоблачно+19°C61 %739 мм0.9 м/с5 %
  • 25мая
    Суббота
    +16°
    +30°
    Облачно с прояснениями
    ВремяПогодаТемператураВлажностьДавлениеВетер, м/сВероятность осадков
    00:00Практически безоблачно+18°C69 %738 мм0.7 м/с5 %
    03:00Облачно с прояснениями+16°C78 %738 мм0.5 м/с5 %
    06:00Облачно с прояснениями+17°C79 %738 мм0.5 м/с5 %
    09:00Облачно с прояснениями+23°C59 %741 мм1.8 м/с5 %
    12:00Практически безоблачно+28°C42 %740 мм2.2 м/с5 %
    15:00Облачно с прояснениями+30°C36 %738 мм2.1 м/с5 %
    18:00Ясно и безоблачно+21°C51 %738 мм0.7 м/с5 %
    21:00Ясно и безоблачно+19°C62 %739 мм0.5 м/с5 %
  • 26мая
    Воскресенье
    +17°
    +29°
    Ясно и безоблачно
    ВремяПогодаТемператураВлажностьДавлениеВетер, м/сВероятность осадков
    00:00Ясно и безоблачно+18°C69 %740 мм0.7 м/с5 %
    03:00Ясно и безоблачно+17°C80 %740 мм0.5 м/с5 %
    06:00Ясно и безоблачно+17°C89 %741 мм0.4 м/с5 %
    09:00Практически безоблачно+24°C69 %743 мм1.6 м/с7 %
    12:00Практически безоблачно+27°C54 %742 мм2.3 м/с20 %
    15:00Ясно и безоблачно+29°C46 %740 мм2.1 м/с18 %
    18:00Ясно и безоблачно+21°C61 %740 мм0.7 м/с10 %
    21:00Ясно и безоблачно+19°C73 %741 мм0.5 м/с9 %
  • 27мая
    Понедельник
    +17°
    +30°
    Практически безоблачно
    ВремяПогодаТемператураВлажностьДавлениеВетер, м/сВероятность осадков
    00:00Небольшая облачность+19°C67 %741 мм0.9 м/с8 %
    03:00Практически безоблачно+18°C82 %741 мм0.8 м/с6 %
    06:00Ясно и безоблачно+18°C87 %741 мм0.5 м/с8 %
    09:00Небольшая облачность+24°C68 %743 мм1.6 м/с5 %
    12:00Небольшая облачность+28°C54 %741 мм2.4 м/с22 %
    15:00Практически безоблачно+29°C47 %739 мм2.2 м/с17 %
    18:00Ясно и безоблачно+21°C62 %739 мм0.7 м/с15 %
    21:00Ясно и безоблачно+19°C68 %740 мм0.8 м/с4 %
Мы используем cookies
Соглашаюсь